Het weer levert geen direct gevaar op.    Er zijn geen waarschuwingen afgegeven.

Notice: Undefined offset: 5 in /home/meteosle/domains/meteo-sleen.nl/public_html/weather2/metar/metarDisplay.php on line 75

Notice: Undefined offset: 6 in /home/meteosle/domains/meteo-sleen.nl/public_html/weather2/metar/metarDisplay.php on line 75

METAR rapporten vliegvelden

   
EBAW - Antwerp
Gewijzigd: 18-12-2018 17:20
Helder  
Helder  
   Wind: ZO 18.5 km/h
Wind: ZO 18.5 km/h
Temperatuur: 7°C
Voelt als: 4°C
Dauwpunt: 3°C
Vochtigheid: 76%
Barometer: 1014 hPa
Zicht: meer dan 10 km
Bewolking: Helder
EBAW 181620Z 14010KT CAVOK 07/03 Q1014 NOSIG
EBLG - Liège
Gewijzigd: 18-12-2018 17:20
Helder  
Helder  
   Wind: ZZO 18.5 km/h
Wind: ZZO 18.5 km/h
Temperatuur: 6°C
Voelt als: 3°C
Dauwpunt: 1°C
Vochtigheid: 71%
Barometer: 1015 hPa
Zicht: meer dan 10 km
Bewolking: Helder
EBLG 181620Z 15010KT 120V180 CAVOK 06/01 Q1015 NOSIG
EBCV - Mons/Bergen
Gewijzigd: 18-12-2018 16:55
Grotendeels bewolkt  
Grotendeels bewolkt  
   Wind: ZZO 20.4 km/h
Wind: ZZO 20.4 km/h
Temperatuur: 7°C
Voelt als: 3°C
Dauwpunt: 2°C
Vochtigheid: 71%
Barometer: 1014 hPa
Bewolking: Grotendeels bewolkt
Zicht: meer dan 10 km
Bewolking: Grotendeels bewolkt 12000 ft
EBCV 181555Z AUTO 15011KT 9999 BKN120/// 07/02 Q1014 BLU
EHBK - Maastricht
Gewijzigd: 18-12-2018 17:25
Gedeeltelijk bewolkt  
Gedeeltelijk bewolkt  
   Wind: ZO 13 km/h
Wind: ZO 13 km/h
Temperatuur: 4°C
Voelt als: 1°C
Dauwpunt: 1°C
Vochtigheid: 81%
Barometer: 1016 hPa
Bewolking: Gedeeltelijk bewolkt
Zicht: meer dan 10 km
Bewolking: Gedeeltelijk bewolkt
EHBK 181625Z AUTO 13007KT 9999 NSC 04/01 Q1016 NOSIG
EHAM - Schiphol
Gewijzigd: 18-12-2018 17:25
Helder  
Helder  
   Wind: ZO 22.2 km/h
Wind: ZO 22.2 km/h
Temperatuur: 7°C
Voelt als: 3°C
Dauwpunt: 5°C
Vochtigheid: 87%
Barometer: 1014 hPa
Zicht: meer dan 10 km
Bewolking: Helder
EHAM 181625Z 13012KT 100V160 CAVOK 07/05 Q1014 NOSIG
EHGG - Eelde
Gewijzigd: 18-12-2018 16:55
Gedeeltelijk bewolkt  
Gedeeltelijk bewolkt  
   Wind: ZO 13 km/h
Wind: ZO 13 km/h
Temperatuur: 5°C
Voelt als: 2°C
Dauwpunt: 4°C
Vochtigheid: 93%
Barometer: 1016 hPa
Bewolking: Gedeeltelijk bewolkt
Zicht: meer dan 10 km
Bewolking: Gedeeltelijk bewolkt
EHGG 181555Z AUTO 14007KT 090V170 9999 NSC 05/04 Q1016 NOSIG

Script ontwikkeld door  Saratoga-weather.org Aangepast voor de template door  Weerstation Leuven

U vindt ons ook hier:

Het Weer Aktueel

UK Metoffice

European Weather Network

Weather Underground

Benelux Weer Netwerk

AWEKAS

Citizen Weather Observer Program (CWOP)

Apparatuur in gebruik:

Weerstation
Davis VP2

Weerprogramma
consoleWD

Weercomputer
RaspberryPI

Webleverancier
Deziweb

Davis VP2

consoleWD

RaspberryPI

Deziweb